Minot, North Dakota
Current Conditions -  °F | °C
As of 1:54 AM on Monday 24 Nov 2014 (Local Time) from KMOT Reporting Station
Clear Clear  
Wind Chill: -24°   Ceiling: Unl
Heat Index: -14°   Visibility: 10mi
Dew Point: -17°   Wind: 17mph
Humidity: 80%   Direction: 310°NW
Pressure: 29.77"   Gusts: NA
Location:  48.24°N, 101.29°W
Report Text: KMOT 240754Z AUTO 31015KT 10SM CLR M14/M17 A2977 RMK AO2 SLP117 T11391167
Loading
Personal Weather Stations






























Interactive Weather Map New forecast layout! Learn more

10-Day Weather Forecast

Advertisements
Track Severe Weather on mobile